Time;durP1;ratioP1;P1;durP2;ratioP2;P2;SDS_P1;SDS_P2;PMS_P1;PMS_P2;Temp;Humidity;BMP_temperature;BMP_pressure;BME280_temperature;BME280_humidity;BME280_pressure;Samples;Min_cycle;Max_cycle;Signal;HPM_P1;HPM_P2
2021/07/24 00:04:19;;;;;;;1.50;0.82;;;24.30;99.90;;;;;;20736727;28;20235;-67
2021/07/24 00:14:23;;;;;;;3.87;1.27;;;24.50;99.90;;;;;;20736565;28;20230;-66
2021/07/24 00:24:28;;;;;;;0.83;0.60;;;24.20;99.90;;;;;;20735489;28;20304;-66
2021/07/24 00:34:32;;;;;;;1.73;0.98;;;23.70;99.90;;;;;;20773294;28;20501;-67
2021/07/24 00:44:40;;;;;;;1.05;1.00;;;24.00;99.90;;;;;;20815755;28;20258;-67
2021/07/24 00:54:44;;;;;;;1.23;0.73;;;23.80;99.90;;;;;;20815275;28;20209;-67
2021/07/24 01:04:49;;;;;;;1.37;1.10;;;23.80;99.90;;;;;;20872859;23;20589;-73
2021/07/24 01:14:53;;;;;;;0.60;0.60;;;23.60;99.90;;;;;;20905845;28;20228;-73
2021/07/24 01:24:58;;;;;;;0.67;0.67;;;23.60;99.90;;;;;;20912131;28;20340;-73
2021/07/24 01:35:02;;;;;;;2.53;0.73;;;23.60;99.90;;;;;;20910280;28;20221;-73
2021/07/24 01:45:08;;;;;;;2.10;1.70;;;23.40;99.90;;;;;;20910340;28;20316;-73
2021/07/24 01:55:17;;;;;;;7.43;1.20;;;23.30;99.90;;;;;;20910563;28;20208;-74
2021/07/24 02:05:29;;;;;;;1.73;0.73;;;23.10;99.90;;;;;;20910765;28;20221;-76
2021/07/24 02:15:34;;;;;;;1.63;0.70;;;23.30;99.90;;;;;;20909290;28;20185;-75
2021/07/24 02:25:40;;;;;;;1.73;0.40;;;22.90;99.90;;;;;;20908397;28;20259;-73
2021/07/24 02:35:44;;;;;;;1.37;0.70;;;23.00;99.90;;;;;;20907205;28;20201;-75
2021/07/24 02:45:51;;;;;;;4.03;1.50;;;22.90;99.90;;;;;;20907003;28;20229;-74
2021/07/24 02:55:55;;;;;;;1.13;0.80;;;23.10;99.90;;;;;;20906256;28;20589;-72
2021/07/24 03:06:01;;;;;;;0.50;0.50;;;23.30;99.90;;;;;;20905831;28;20237;-73
2021/07/24 03:16:05;;;;;;;1.27;0.80;;;23.70;99.90;;;;;;20904261;28;20267;-73
2021/07/24 03:26:10;;;;;;;1.07;0.50;;;23.40;99.90;;;;;;20903392;28;20228;-73
2021/07/24 03:36:14;;;;;;;1.20;0.90;;;23.20;99.90;;;;;;20900844;28;20671;-73
2021/07/24 03:46:21;;;;;;;0.70;0.70;;;23.40;99.90;;;;;;20901696;28;20221;-73
2021/07/24 03:56:25;;;;;;;2.60;0.90;;;23.10;99.90;;;;;;20901683;28;20952;-73
2021/07/24 04:06:30;;;;;;;1.63;1.03;;;23.40;99.90;;;;;;20795522;22;20272;-67
2021/07/24 04:16:34;;;;;;;3.90;0.90;;;23.40;99.90;;;;;;20736724;28;20289;-67
2021/07/24 04:26:39;;;;;;;4.20;1.10;;;23.30;99.90;;;;;;20736488;28;20242;-68
2021/07/24 04:36:42;;;;;;;2.00;0.67;;;23.50;99.90;;;;;;20733467;28;20289;-68
2021/07/24 04:46:48;;;;;;;3.00;1.20;;;23.50;99.90;;;;;;20739105;28;20699;-68
2021/07/24 04:56:52;;;;;;;1.53;1.00;;;23.30;99.90;;;;;;20748279;28;20567;-68
2021/07/24 05:06:58;;;;;;;1.53;1.27;;;23.40;99.90;;;;;;20750325;28;20784;-67
2021/07/24 05:17:09;;;;;;;1.60;1.00;;;23.60;99.90;;;;;;20748969;28;20317;-67
2021/07/24 05:27:14;;;;;;;1.80;0.77;;;23.40;99.90;;;;;;20748224;28;20646;-67
2021/07/24 05:37:19;;;;;;;3.50;1.43;;;23.50;99.90;;;;;;20747079;28;20199;-67
2021/07/24 05:47:25;;;;;;;0.90;0.68;;;23.90;99.90;;;;;;20746035;28;20201;-68
2021/07/24 05:57:29;;;;;;;3.93;1.13;;;24.20;99.90;;;;;;20744676;28;20707;-66
2021/07/24 06:07:34;;;;;;;2.08;1.48;;;24.50;99.90;;;;;;20739879;28;20695;-67
2021/07/24 06:17:37;;;;;;;1.88;1.55;;;24.80;99.90;;;;;;20743435;28;20206;-67
2021/07/24 06:27:43;;;;;;;5.68;1.55;;;25.10;99.90;;;;;;20743137;28;20206;-68
2021/07/24 06:37:46;;;;;;;6.97;1.50;;;25.40;99.90;;;;;;20740482;28;20250;-67
2021/07/24 06:47:51;;;;;;;9.00;2.00;;;25.90;99.90;;;;;;20740663;28;20233;-68
2021/07/24 06:57:55;;;;;;;1.67;1.25;;;26.00;99.90;;;;;;20739176;28;20238;-67
2021/07/24 07:08:01;;;;;;;1.35;1.25;;;26.50;99.90;;;;;;20676333;28;20574;-66
2021/07/24 07:18:05;;;;;;;2.83;1.40;;;26.60;99.90;;;;;;20657048;28;20290;-67
2021/07/24 07:28:10;;;;;;;9.07;1.35;;;26.70;99.90;;;;;;20654044;28;20230;-69
2021/07/24 07:38:14;;;;;;;2.85;1.02;;;26.80;99.90;;;;;;20723936;28;20664;-66
2021/07/24 07:48:19;;;;;;;1.17;0.90;;;26.90;99.90;;;;;;20687581;28;20310;-69
2021/07/24 07:58:24;;;;;;;2.40;1.33;;;27.00;99.90;;;;;;20655744;28;20556;-70
2021/07/24 08:08:29;;;;;;;2.13;1.48;;;27.20;99.90;;;;;;20654440;28;20343;-68
2021/07/24 08:18:32;;;;;;;2.90;1.63;;;27.40;99.90;;;;;;20653281;28;20199;-67
2021/07/24 08:28:38;;;;;;;7.63;2.72;;;27.80;99.90;;;;;;20652014;28;20223;-68
2021/07/24 08:38:41;;;;;;;6.93;2.88;;;27.80;99.90;;;;;;20724161;28;20274;-68
2021/07/24 08:48:47;;;;;;;2.30;1.80;;;28.30;99.90;;;;;;20733403;28;20222;-68
2021/07/24 08:58:53;;;;;;;6.22;3.05;;;28.10;99.90;;;;;;20728255;28;20517;-70
2021/07/24 09:09:02;;;;;;;1.67;1.40;;;28.10;99.90;;;;;;20732712;28;20246;-68
2021/07/24 09:19:06;;;;;;;4.35;2.42;;;28.30;99.90;;;;;;20699807;28;20282;-68
2021/07/24 09:29:15;;;;;;;2.50;1.77;;;27.90;99.90;;;;;;20729692;28;20572;-68
2021/07/24 09:39:20;;;;;;;2.25;2.03;;;28.20;99.90;;;;;;20716283;28;20261;-68
2021/07/24 09:49:35;;;;;;;3.50;2.17;;;28.50;99.90;;;;;;20719152;28;20313;-68
2021/07/24 09:59:39;;;;;;;4.97;2.15;;;28.70;99.90;;;;;;20738835;28;20976;-68
2021/07/24 10:09:47;;;;;;;5.15;3.28;;;28.40;99.90;;;;;;20721320;28;20306;-69
2021/07/24 10:19:51;;;;;;;3.50;2.28;;;28.80;99.90;;;;;;20740412;28;20293;-69
2021/07/24 10:30:00;;;;;;;2.22;1.92;;;28.90;99.90;;;;;;20712063;28;20257;-69
2021/07/24 10:40:35;;;;;;;9.30;2.55;;;29.00;99.90;;;;;;20678833;28;20195;-72
2021/07/24 10:51:15;;;;;;;3.42;2.05;;;29.50;99.90;;;;;;20720265;28;20312;-73
2021/07/24 11:01:44;;;;;;;2.67;1.90;;;29.00;99.90;;;;;;20718678;28;20231;-70
2021/07/24 11:12:06;;;;;;;5.70;1.67;;;29.60;99.90;;;;;;20702354;28;20293;-70
2021/07/24 11:22:14;;;;;;;3.50;2.03;;;30.00;99.90;;;;;;20695524;28;20210;-71
2021/07/24 11:32:26;;;;;;;5.20;2.15;;;30.40;99.90;;;;;;20674780;28;20222;-69
2021/07/24 11:42:29;;;;;;;3.67;2.17;;;30.90;99.90;;;;;;20691376;28;20230;-68
2021/07/24 11:52:34;;;;;;;1.70;1.17;;;31.40;99.90;;;;;;20711283;28;20263;-66
2021/07/24 12:02:38;;;;;;;6.05;2.08;;;32.00;99.90;;;;;;20693085;28;20219;-65
2021/07/24 12:12:45;;;;;;;2.38;1.77;;;31.60;99.90;;;;;;20732552;28;20326;-66
2021/07/24 12:22:48;;;;;;;1.98;1.13;;;32.20;99.90;;;;;;20732455;28;20540;-65
2021/07/24 12:32:53;;;;;;;4.35;2.25;;;33.40;99.90;;;;;;20708214;28;20758;-66
2021/07/24 12:43:09;;;;;;;6.60;1.90;;;32.50;99.90;;;;;;20650129;28;20214;-65
2021/07/24 12:53:20;;;;;;;3.28;1.55;;;33.00;99.90;;;;;;20696211;28;20618;-65
2021/07/24 13:03:23;;;;;;;1.98;1.67;;;33.60;99.90;;;;;;20669748;28;20255;-64
2021/07/24 13:13:28;;;;;;;2.92;1.17;;;33.80;99.90;;;;;;20659755;28;20720;-64
2021/07/24 13:23:32;;;;;;;5.78;1.42;;;33.90;99.90;;;;;;20661869;28;20203;-66
2021/07/24 13:33:37;;;;;;;2.65;2.05;;;34.50;99.90;;;;;;20664348;28;20235;-64
2021/07/24 13:43:40;;;;;;;3.10;1.60;;;34.60;99.90;;;;;;20663205;28;20210;-64
2021/07/24 13:53:45;;;;;;;6.50;2.22;;;34.40;99.90;;;;;;20659825;28;20224;-65
2021/07/24 14:03:49;;;;;;;2.67;1.98;;;33.90;99.90;;;;;;20738877;28;20289;-65
2021/07/24 14:13:55;;;;;;;2.72;1.88;;;33.90;99.90;;;;;;20737219;28;20241;-65
2021/07/24 14:24:00;;;;;;;6.07;1.40;;;34.70;99.90;;;;;;20678275;28;20200;-63
2021/07/24 14:34:05;;;;;;;5.00;2.80;;;34.80;99.90;;;;;;20703514;28;20231;-64
2021/07/24 15:21:22;;;;;;;4.07;2.67;;;34.80;99.90;;;;;;21176941;27;20290;-66
2021/07/24 15:31:25;;;;;;;3.97;2.35;;;35.00;99.90;;;;;;21092827;28;20298;-64
2021/07/24 15:41:30;;;;;;;2.70;2.25;;;35.70;99.90;;;;;;21093101;28;20392;-65
2021/07/24 15:51:35;;;;;;;2.92;1.63;;;35.20;99.90;;;;;;21092049;28;20293;-67
2021/07/24 16:01:40;;;;;;;2.70;1.52;;;34.60;99.90;;;;;;21092961;28;20208;-66
2021/07/24 16:11:44;;;;;;;5.72;1.77;;;34.20;99.90;;;;;;21093551;28;20246;-67
2021/07/24 16:21:49;;;;;;;3.35;2.40;;;34.60;99.90;;;;;;21120593;28;20428;-68
2021/07/24 16:31:53;;;;;;;15.27;2.33;;;33.40;99.90;;;;;;21116446;28;20226;-66
2021/07/24 16:41:58;;;;;;;4.45;2.08;;;31.80;99.90;;;;;;21116723;28;20199;-66
2021/07/24 16:52:02;;;;;;;5.35;2.53;;;31.20;99.90;;;;;;21113802;28;20697;-68
2021/07/24 17:02:08;;;;;;;5.35;1.77;;;31.40;99.90;;;;;;21113240;28;20207;-67
2021/07/24 17:12:12;;;;;;;2.83;2.05;;;31.80;99.90;;;;;;21093887;28;20251;-68
2021/07/24 17:22:16;;;;;;;2.97;1.35;;;32.70;99.90;;;;;;21112798;28;20207;-65
2021/07/24 17:32:20;;;;;;;4.15;1.65;;;32.70;99.90;;;;;;21109161;28;20249;-67
2021/07/24 17:42:27;;;;;;;3.95;2.33;;;31.80;99.90;;;;;;21109193;28;20585;-66
2021/07/24 17:52:31;;;;;;;6.22;1.80;;;31.80;99.90;;;;;;21086724;28;20440;-66
2021/07/24 18:02:36;;;;;;;2.40;1.20;;;31.40;99.90;;;;;;21102989;28;20191;-66
2021/07/24 18:12:40;;;;;;;4.03;1.60;;;29.60;99.90;;;;;;21103841;28;20227;-66
2021/07/24 18:22:45;;;;;;;1.58;1.08;;;29.30;99.90;;;;;;21103046;28;20195;-66
2021/07/24 18:32:50;;;;;;;2.97;1.73;;;28.70;99.90;;;;;;21103480;28;20215;-65
2021/07/24 18:42:55;;;;;;;1.85;1.30;;;29.60;99.90;;;;;;21099456;28;20214;-66
2021/07/24 18:53:01;;;;;;;1.27;1.17;;;28.70;99.90;;;;;;21101063;28;20724;-67
2021/07/24 19:03:07;;;;;;;4.68;2.00;;;27.90;99.90;;;;;;21103258;28;20629;-68
2021/07/24 19:13:10;;;;;;;4.38;2.47;;;27.80;99.90;;;;;;21103267;28;20257;-67
2021/07/24 19:23:16;;;;;;;1.45;1.30;;;27.70;99.90;;;;;;21103309;28;20200;-66
2021/07/24 19:33:19;;;;;;;1.63;1.38;;;27.30;99.90;;;;;;21105442;28;20219;-66
2021/07/24 19:43:24;;;;;;;0.82;0.77;;;27.20;99.90;;;;;;21105782;28;20276;-66
2021/07/24 19:53:28;;;;;;;8.90;1.80;;;27.20;99.90;;;;;;21113291;28;20305;-66
2021/07/24 20:03:38;;;;;;;1.58;1.00;;;26.80;99.90;;;;;;21119853;28;20191;-65
2021/07/24 20:13:42;;;;;;;2.60;1.30;;;26.70;99.90;;;;;;21115749;28;20235;-66
2021/07/24 20:23:50;;;;;;;7.70;2.13;;;26.70;99.90;;;;;;21121193;28;20600;-67
2021/07/24 20:33:54;;;;;;;3.67;1.58;;;26.40;99.90;;;;;;21116828;28;20226;-66
2021/07/24 20:43:59;;;;;;;8.13;3.30;;;26.40;99.90;;;;;;21118738;28;20187;-67
2021/07/24 20:54:03;;;;;;;2.03;1.83;;;26.10;99.90;;;;;;21116585;28;20583;-67
2021/07/24 21:04:08;;;;;;;4.93;1.52;;;25.80;99.90;;;;;;21097834;28;20196;-67
2021/07/24 21:14:11;;;;;;;1.98;1.40;;;25.80;99.90;;;;;;21096667;28;20234;-66
2021/07/24 21:24:16;;;;;;;1.15;1.05;;;25.40;99.90;;;;;;21096243;28;20237;-66
2021/07/24 21:34:20;;;;;;;1.92;1.52;;;25.20;99.90;;;;;;21115445;28;20697;-66
2021/07/24 21:44:25;;;;;;;14.75;2.40;;;25.40;99.90;;;;;;21113229;28;20199;-66
2021/07/24 21:54:28;;;;;;;1.98;1.30;;;25.60;99.90;;;;;;21096122;28;20785;-66
2021/07/24 22:04:35;;;;;;;1.73;1.15;;;25.80;99.90;;;;;;21110745;28;20192;-67
2021/07/24 22:14:39;;;;;;;6.65;2.47;;;25.70;99.90;;;;;;21110133;28;20657;-68
2021/07/24 22:24:44;;;;;;;6.97;1.52;;;25.80;99.90;;;;;;21105923;28;20192;-68
2021/07/24 22:34:48;;;;;;;3.30;1.70;;;25.80;99.90;;;;;;21108131;28;20419;-68
2021/07/24 22:44:53;;;;;;;2.80;1.27;;;25.80;99.90;;;;;;21107355;28;20737;-67
2021/07/24 22:54:56;;;;;;;4.85;1.92;;;25.80;99.90;;;;;;21106115;28;20227;-67
2021/07/24 23:05:17;;;;;;;2.50;1.60;;;25.70;99.90;;;;;;21108901;28;20252;-67
2021/07/24 23:15:20;;;;;;;5.68;1.50;;;25.40;99.90;;;;;;21087207;28;20234;-67
2021/07/24 23:25:25;;;;;;;1.98;1.40;;;25.30;99.90;;;;;;21093517;28;20191;-67
2021/07/24 23:35:29;;;;;;;5.13;1.25;;;25.20;99.90;;;;;;21106479;28;20223;-67
2021/07/24 23:45:36;;;;;;;4.85;1.13;;;25.20;99.90;;;;;;21106323;28;20662;-67
2021/07/24 23:55:40;;;;;;;2.60;1.10;;;25.10;99.90;;;;;;21121479;28;20246;-67
